Time;durP1;ratioP1;P1;durP2;ratioP2;P2;SDS_P1;SDS_P2;PMS_P1;PMS_P2;Temp;Humidity;BMP_temperature;BMP_pressure;BME280_temperature;BME280_humidity;BME280_pressure;Samples;Min_cycle;Max_cycle;Signal;HPM_P1;HPM_P2
2021/12/13 00:00:27;;;;;;;4.67;4.00;;;;;;;1.78;88.97;94908.59;5096432;28;20201;-77
2021/12/13 00:03:03;;;;;;;4.80;4.40;;;;;;;1.75;89.22;94913.09;5096195;28;20940;-77
2021/12/13 00:05:35;;;;;;;5.63;3.60;;;;;;;1.71;89.54;94919.28;5096463;28;20446;-77
2021/12/13 00:08:06;;;;;;;8.27;6.80;;;;;;;1.73;89.34;94915.72;5096136;28;20495;-77
2021/12/13 00:10:40;;;;;;;11.97;6.07;;;;;;;1.66;89.60;94921.28;5096374;28;20484;-77
2021/12/13 00:13:11;;;;;;;10.63;6.50;;;;;;;1.72;89.59;94914.03;5096298;28;20446;-77
2021/12/13 00:15:46;;;;;;;9.03;6.60;;;;;;;1.70;89.55;94926.22;5096545;28;20465;-77
2021/12/13 00:18:22;;;;;;;6.93;5.17;;;;;;;1.73;89.52;94926.06;5061248;28;20443;-77
2021/12/13 00:20:59;;;;;;;11.13;6.60;;;;;;;1.80;89.64;94924.03;5096785;28;20437;-77
2021/12/13 00:23:35;;;;;;;11.60;7.60;;;;;;;1.90;89.38;94929.56;5046934;28;20431;-77
2021/12/13 00:26:05;;;;;;;7.33;5.43;;;;;;;2.01;89.22;94917.75;5096726;28;20439;-77
2021/12/13 00:28:36;;;;;;;7.33;4.93;;;;;;;2.01;88.38;94916.91;5096373;28;20460;-77
2021/12/13 00:31:16;;;;;;;7.03;5.10;;;;;;;1.98;88.36;94924.84;5096727;28;20926;-77
2021/12/13 00:33:58;;;;;;;8.60;5.50;;;;;;;1.97;87.48;94925.75;5096578;28;20460;-77
2021/12/13 00:36:34;;;;;;;6.60;4.63;;;;;;;1.97;87.44;94924.00;5096237;28;20427;-77
2021/12/13 00:39:12;;;;;;;8.03;5.10;;;;;;;1.98;87.28;94917.91;5096187;28;20431;-78
2021/12/13 00:41:42;;;;;;;10.23;5.77;;;;;;;2.01;87.23;94919.50;5096227;28;20792;-77
2021/12/13 00:44:16;;;;;;;4.23;3.37;;;;;;;1.94;86.79;94931.09;5096175;28;20443;-77
2021/12/13 00:46:46;;;;;;;5.87;3.87;;;;;;;1.88;85.95;94921.06;5046572;28;20475;-77
2021/12/13 00:49:17;;;;;;;4.30;3.90;;;;;;;1.77;86.80;94919.84;5096227;28;20479;-77
2021/12/13 00:51:49;;;;;;;6.73;5.00;;;;;;;1.78;86.31;94923.28;5096351;28;20201;-77
2021/12/13 00:54:21;;;;;;;11.93;7.20;;;;;;;1.81;86.74;94920.53;5095928;28;20431;-77
2021/12/13 00:57:08;;;;;;;5.13;4.17;;;;;;;1.83;86.83;94926.47;5096811;28;20439;-77
2021/12/13 00:59:38;;;;;;;6.57;3.97;;;;;;;1.76;86.16;94928.53;5096006;28;20979;-77
2021/12/13 01:02:10;;;;;;;5.20;3.50;;;;;;;1.72;86.12;94908.88;5096087;28;20435;-77
2021/12/13 01:04:55;;;;;;;9.13;6.07;;;;;;;1.86;86.28;94919.38;5044767;28;20439;-77
2021/12/13 01:08:05;;;;;;;10.77;6.20;;;;;;;1.87;86.19;94917.63;5095812;28;20467;-77
2021/12/13 01:11:11;;;;;;;24.93;11.20;;;;;;;1.83;85.44;94910.94;5014038;28;20442;-77
2021/12/13 01:14:02;;;;;;;7.03;4.87;;;;;;;1.75;85.90;94905.31;5013681;28;20431;-77
2021/12/13 01:16:49;;;;;;;5.50;4.00;;;;;;;1.78;85.96;94911.19;5013567;28;20427;-77
2021/12/13 01:19:31;;;;;;;5.83;4.60;;;;;;;1.74;85.65;94912.25;5013776;28;20447;-77
2021/12/13 01:22:39;;;;;;;6.43;3.83;;;;;;;1.76;86.54;94919.94;5013352;28;20870;-77
2021/12/13 01:25:20;;;;;;;4.53;3.40;;;;;;;1.71;85.52;94927.06;5013725;28;20447;-77
2021/12/13 01:27:53;;;;;;;6.13;3.70;;;;;;;1.73;86.07;94917.47;5013744;28;20497;-77
2021/12/13 01:30:22;;;;;;;9.07;6.37;;;;;;;1.74;86.07;94916.59;5013278;28;21033;-77
2021/12/13 01:32:52;;;;;;;9.32;6.65;;;;;;;1.79;86.19;94917.19;5012807;28;20511;-77
2021/12/13 01:35:22;;;;;;;7.23;5.60;;;;;;;1.88;85.80;94914.13;5012933;28;20192;-77
2021/12/13 01:41:20;;;;;;;3.33;3.03;;;;;;;1.79;85.30;94918.03;5011941;28;20438;-77
2021/12/13 01:43:52;;;;;;;3.27;2.90;;;;;;;1.75;86.46;94911.34;5030396;28;20553;-76
2021/12/13 01:46:21;;;;;;;6.37;4.80;;;;;;;1.79;86.64;94918.03;5095281;28;20911;-77
2021/12/13 01:48:49;;;;;;;5.60;3.43;;;;;;;1.78;86.17;94907.75;5094709;28;20514;-77
2021/12/13 01:51:21;;;;;;;5.10;4.20;;;;;;;1.81;86.29;94921.38;5094928;28;20902;-77
2021/12/13 01:53:53;;;;;;;4.17;3.53;;;;;;;1.75;86.10;94910.50;5094283;28;20500;-77
2021/12/13 01:56:39;;;;;;;7.43;4.57;;;;;;;1.78;86.37;94908.59;5093711;28;20448;-77
2021/12/13 01:59:27;;;;;;;3.70;3.33;;;;;;;1.81;86.81;94903.25;5093535;28;20216;-77
2021/12/13 02:01:56;;;;;;;7.87;5.10;;;;;;;1.83;86.90;94911.78;5093797;28;20193;-77
2021/12/13 02:04:23;;;;;;;5.07;4.07;;;;;;;1.82;87.19;94906.69;5093653;28;20423;-77
2021/12/13 02:06:52;;;;;;;8.30;5.27;;;;;;;1.88;88.14;94902.94;5093016;28;20444;-77
2021/12/13 02:09:21;;;;;;;5.23;4.07;;;;;;;1.88;87.62;94908.13;5093398;28;20439;-77
2021/12/13 02:11:55;;;;;;;7.93;4.53;;;;;;;1.85;87.83;94897.00;5093499;28;20443;-77
2021/12/13 02:14:27;;;;;;;4.00;3.60;;;;;;;1.86;88.63;94906.44;5093620;28;20953;-77
2021/12/13 02:17:07;;;;;;;4.40;4.00;;;;;;;1.88;88.60;94897.78;5093349;28;20986;-77
2021/12/13 02:19:42;;;;;;;3.60;3.10;;;;;;;1.75;89.27;94898.41;5093439;28;20525;-77
2021/12/13 02:22:31;;;;;;;3.97;3.67;;;;;;;1.76;89.62;94899.25;5093375;28;20435;-77
2021/12/13 02:25:01;;;;;;;4.03;3.73;;;;;;;1.78;89.92;94897.41;5093478;28;20501;-77
2021/12/13 02:27:32;;;;;;;6.03;3.73;;;;;;;1.74;90.03;94896.72;5092609;28;20475;-77
2021/12/13 02:30:09;;;;;;;3.93;3.53;;;;;;;1.79;90.16;94880.97;5093345;28;20450;-77
2021/12/13 02:32:37;;;;;;;3.22;2.92;;;;;;;1.70;90.26;94900.34;5093620;28;20443;-77
2021/12/13 02:35:07;;;;;;;4.40;3.43;;;;;;;1.65;91.08;94894.59;5058844;28;20220;-76
2021/12/13 02:37:36;;;;;;;3.30;2.97;;;;;;;1.64;90.42;94898.09;5093567;28;20435;-77
2021/12/13 02:40:06;;;;;;;4.53;3.70;;;;;;;1.62;91.13;94902.50;5093292;28;20827;-77
2021/12/13 02:42:35;;;;;;;7.90;5.60;;;;;;;1.61;90.88;94897.41;5092936;28;20201;-77
2021/12/13 02:45:13;;;;;;;3.67;3.40;;;;;;;1.47;90.97;94898.09;5092721;28;20206;-77
2021/12/13 02:47:45;;;;;;;4.80;3.97;;;;;;;1.54;91.08;94914.97;5093155;28;20522;-77
2021/12/13 02:50:16;;;;;;;3.33;3.03;;;;;;;1.43;91.03;94905.16;5092808;28;20489;-77
2021/12/13 02:52:45;;;;;;;4.27;3.97;;;;;;;1.47;91.03;94904.09;5093134;28;20220;-77
2021/12/13 02:55:18;;;;;;;3.60;3.35;;;;;;;1.43;91.33;94905.16;5057080;28;20426;-77
2021/12/13 02:57:53;;;;;;;4.53;4.20;;;;;;;1.40;91.99;94909.63;5092990;28;20200;-77
2021/12/13 03:00:25;;;;;;;8.00;4.90;;;;;;;1.53;92.07;94908.13;5041936;28;20933;-76
2021/12/13 03:02:56;;;;;;;5.23;3.43;;;;;;;1.48;91.59;94905.78;5093475;28;20443;-77
2021/12/13 03:05:30;;;;;;;5.35;4.50;;;;;;;1.47;91.72;94903.28;5093183;28;20448;-77
2021/12/13 03:08:05;;;;;;;6.50;4.25;;;;;;;1.50;92.38;94903.13;5093030;28;20564;-77
2021/12/13 03:10:35;;;;;;;5.27;4.70;;;;;;;1.51;92.60;94904.78;5092505;28;20228;-78
2021/12/13 03:13:02;;;;;;;4.77;4.07;;;;;;;1.61;93.25;94903.41;5092408;28;20964;-77
2021/12/13 03:15:32;;;;;;;6.60;5.03;;;;;;;1.58;92.62;94900.97;5092496;28;20462;-77
2021/12/13 03:18:06;;;;;;;5.50;4.93;;;;;;;1.58;93.41;94900.97;5059815;28;20435;-77
2021/12/13 03:20:54;;;;;;;5.90;5.00;;;;;;;1.63;93.85;94900.75;5097190;28;20446;-77
2021/12/13 03:23:37;;;;;;;3.80;3.50;;;;;;;1.51;94.16;94900.47;5044533;28;20921;-77
2021/12/13 03:26:27;;;;;;;6.78;4.10;;;;;;;1.45;94.60;94893.00;5096618;28;20447;-77
2021/12/13 03:29:07;;;;;;;4.45;3.70;;;;;;;1.38;95.20;94891.63;5096346;28;20237;-77
2021/12/13 03:31:40;;;;;;;5.13;3.90;;;;;;;1.36;95.52;94900.34;5096403;28;20205;-77
2021/12/13 03:34:10;;;;;;;4.13;3.73;;;;;;;1.24;96.85;94888.88;5096463;28;20444;-77
2021/12/13 03:36:46;;;;;;;4.17;3.77;;;;;;;1.26;96.93;94899.16;5096715;28;20530;-77
2021/12/13 03:39:18;;;;;;;4.33;3.93;;;;;;;1.20;97.64;94901.13;5096481;28;20937;-77
2021/12/13 03:41:50;;;;;;;4.88;4.47;;;;;;;1.15;97.71;94891.88;5096836;28;20443;-77
2021/12/13 03:44:20;;;;;;;6.53;4.53;;;;;;;1.18;98.17;94891.78;5096933;28;20225;-77
2021/12/13 03:46:50;;;;;;;4.68;4.28;;;;;;;1.15;97.96;94887.56;5096668;28;20198;-77
2021/12/13 03:49:20;;;;;;;4.93;4.30;;;;;;;1.14;98.07;94880.72;5077155;28;20271;-77
2021/12/13 03:51:47;;;;;;;4.70;4.30;;;;;;;1.23;98.55;94890.63;5096422;28;20205;-77
2021/12/13 03:54:19;;;;;;;5.78;4.45;;;;;;;1.19;98.01;94889.13;5096591;28;20207;-77
2021/12/13 03:56:49;;;;;;;6.32;5.13;;;;;;;1.26;98.22;94883.63;5096477;28;20205;-77
2021/12/13 03:59:19;;;;;;;4.13;3.83;;;;;;;1.23;98.38;94893.22;5060589;28;20653;-77
2021/12/13 04:01:51;;;;;;;4.82;4.43;;;;;;;1.16;98.43;94891.84;5096485;28;20207;-77
2021/12/13 04:04:22;;;;;;;5.43;4.90;;;;;;;1.11;98.27;94900.69;5095999;28;20537;-77
2021/12/13 04:06:52;;;;;;;8.30;5.25;;;;;;;1.06;98.98;94893.19;5096113;28;20204;-76
2021/12/13 04:09:24;;;;;;;6.05;5.45;;;;;;;1.09;99.15;94889.59;5060289;28;20695;-77
2021/12/13 04:11:55;;;;;;;5.18;4.50;;;;;;;1.01;99.10;94889.97;5096240;28;20197;-77
2021/12/13 04:14:29;;;;;;;6.60;4.90;;;;;;;1.06;98.75;94890.59;5096304;28;20617;-78
2021/12/13 04:17:07;;;;;;;10.55;5.75;;;;;;;1.08;98.88;94893.09;5096159;28;20201;-77
2021/12/13 04:19:53;;;;;;;4.72;4.22;;;;;;;1.01;99.18;94899.47;5077096;28;20197;-76
2021/12/13 04:22:24;;;;;;;5.90;4.88;;;;;;;1.03;99.48;94895.91;5095819;28;20189;-77
2021/12/13 04:24:55;;;;;;;5.80;5.30;;;;;;;1.09;99.13;94895.63;5095306;28;20205;-77
2021/12/13 04:27:26;;;;;;;5.63;5.00;;;;;;;1.16;98.79;94909.09;5095825;28;20247;-77
2021/12/13 04:29:56;;;;;;;5.38;4.88;;;;;;;1.15;98.53;94918.56;5094826;28;20225;-77
2021/12/13 04:32:30;;;;;;;5.10;4.45;;;;;;;1.18;98.80;94913.28;5095498;28;20627;-77
2021/12/13 04:35:04;;;;;;;4.65;4.28;;;;;;;1.13;97.92;94915.22;5095345;28;20212;-77
2021/12/13 04:37:36;;;;;;;7.63;6.72;;;;;;;1.17;98.72;94916.78;5095712;28;20565;-77
2021/12/13 04:40:08;;;;;;;5.47;4.97;;;;;;;1.08;99.09;94917.19;5095381;28;20212;-77
2021/12/13 04:42:36;;;;;;;9.40;8.35;;;;;;;1.04;100.00;94918.25;5095564;28;20668;-77
2021/12/13 04:45:07;;;;;;;6.15;5.55;;;;;;;1.00;100.00;94919.31;5095252;28;20208;-77
2021/12/13 04:47:37;;;;;;;6.43;5.35;;;;;;;1.01;100.00;94923.56;5095346;28;20203;-77
2021/12/13 04:50:13;;;;;;;7.30;6.40;;;;;;;1.04;100.00;94938.09;5095203;28;20588;-77
2021/12/13 04:52:40;;;;;;;8.57;6.05;;;;;;;1.05;100.00;94940.59;5095450;28;20201;-77
2021/12/13 04:55:13;;;;;;;8.73;6.13;;;;;;;1.05;100.00;94934.59;5095512;28;20220;-77
2021/12/13 04:57:41;;;;;;;8.07;6.47;;;;;;;1.06;100.00;94937.09;5095076;28;20211;-77
2021/12/13 05:00:12;;;;;;;8.50;4.88;;;;;;;1.00;100.00;94929.66;5095037;28;20198;-76
2021/12/13 05:02:44;;;;;;;8.88;7.25;;;;;;;0.98;100.00;94931.47;5043874;28;20202;-77
2021/12/13 05:05:13;;;;;;;7.55;5.50;;;;;;;0.97;100.00;94937.53;5094937;28;20204;-77
2021/12/13 05:07:42;;;;;;;7.07;6.10;;;;;;;0.91;100.00;94935.25;5095018;28;20240;-76
2021/12/13 05:10:11;;;;;;;8.63;6.15;;;;;;;0.91;100.00;94936.09;5094813;28;20250;-77
2021/12/13 05:12:41;;;;;;;7.93;5.83;;;;;;;0.94;100.00;94935.09;5059837;28;20216;-77
2021/12/13 05:15:10;;;;;;;6.90;6.18;;;;;;;0.91;100.00;94930.91;5094804;28;20451;-77
2021/12/13 05:17:44;;;;;;;8.32;6.18;;;;;;;0.91;100.00;94941.25;5095472;28;20241;-77
2021/12/13 05:20:17;;;;;;;7.82;7.03;;;;;;;0.98;100.00;94941.81;5094774;28;20196;-77
2021/12/13 05:22:57;;;;;;;7.78;6.63;;;;;;;0.99;100.00;94951.22;5095022;28;20193;-77
2021/12/13 05:25:30;;;;;;;9.75;7.25;;;;;;;0.95;100.00;94946.28;5094574;28;20211;-77
2021/12/13 05:28:04;;;;;;;9.25;7.18;;;;;;;0.99;100.00;94953.81;5094577;28;20209;-77
2021/12/13 05:30:33;;;;;;;8.70;6.60;;;;;;;0.97;100.00;94950.47;5094390;28;20208;-77
2021/12/13 05:33:04;;;;;;;8.25;7.07;;;;;;;0.98;100.00;94954.72;5094177;28;20442;-75
2021/12/13 05:35:33;;;;;;;7.20;5.75;;;;;;;1.00;100.00;94960.66;5095328;28;20205;-77
2021/12/13 05:38:05;;;;;;;9.50;6.07;;;;;;;0.89;100.00;94956.00;5095795;28;20209;-77
2021/12/13 05:40:40;;;;;;;7.93;5.70;;;;;;;0.89;100.00;94955.16;5094426;28;20186;-77
2021/12/13 05:43:21;;;;;;;11.02;5.97;;;;;;;0.94;100.00;94960.94;5094430;28;20800;-76
2021/12/13 05:45:54;;;;;;;6.55;5.97;;;;;;;0.93;100.00;94965.25;5094923;28;20193;-77
2021/12/13 05:48:23;;;;;;;8.93;7.47;;;;;;;0.96;100.00;94963.44;5094861;28;20222;-76
2021/12/13 05:50:53;;;;;;;7.60;6.25;;;;;;;0.99;100.00;94971.88;5095506;28;20233;-77
2021/12/13 05:53:25;;;;;;;6.87;5.97;;;;;;;1.00;100.00;94964.97;5095184;28;20224;-76
2021/12/13 05:55:59;;;;;;;7.03;6.32;;;;;;;0.98;100.00;94977.13;5059989;28;20436;-76
2021/12/13 05:58:40;;;;;;;7.33;5.67;;;;;;;0.91;100.00;94987.75;5095563;28;20337;-77
2021/12/13 06:01:12;;;;;;;7.85;6.72;;;;;;;0.97;100.00;94980.63;5094572;28;20976;-77
2021/12/13 06:03:43;;;;;;;11.00;8.77;;;;;;;1.05;100.00;94983.69;5094672;28;20274;-76
2021/12/13 06:06:13;;;;;;;9.68;8.43;;;;;;;1.08;100.00;94993.88;5094819;28;20201;-77
2021/12/13 06:08:45;;;;;;;9.18;7.13;;;;;;;1.01;100.00;94998.50;5059374;28;20225;-76
2021/12/13 06:11:15;;;;;;;7.37;6.50;;;;;;;1.04;100.00;95006.09;5094025;28;20212;-78
2021/12/13 06:13:59;;;;;;;7.07;6.38;;;;;;;1.07;100.00;95008.53;5094999;28;20462;-77
2021/12/13 06:17:04;;;;;;;8.30;7.40;;;;;;;1.07;100.00;94993.03;5094698;28;20714;-77
2021/12/13 06:19:36;;;;;;;22.50;11.55;;;;;;;1.03;100.00;95006.16;5032317;28;20192;-77
2021/12/13 06:22:08;;;;;;;12.93;8.93;;;;;;;0.96;100.00;95000.44;5032847;28;20192;-77
2021/12/13 06:24:40;;;;;;;31.17;17.90;;;;;;;1.09;100.00;95006.72;5032457;28;20529;-78
2021/12/13 06:27:13;;;;;;;27.98;14.20;;;;;;;1.15;100.00;95005.59;5032972;28;20242;-78
2021/12/13 06:30:18;;;;;;;15.63;11.35;;;;;;;1.24;100.00;95000.00;5032077;28;20709;-79
2021/12/13 06:32:51;;;;;;;18.20;12.95;;;;;;;1.29;100.00;95002.38;5031050;28;20704;-78
2021/12/13 06:35:43;;;;;;;18.63;11.40;;;;;;;1.33;100.00;95009.06;5032201;28;20196;-78
2021/12/13 06:41:38;;;;;;;8.15;7.35;;;;;;;1.36;100.00;95003.75;5031770;28;20565;-78
2021/12/13 06:44:09;;;;;;;7.60;6.00;;;;;;;1.28;100.00;95013.63;5032439;28;20199;-78
2021/12/13 06:46:41;;;;;;;8.75;6.55;;;;;;;1.24;100.00;95016.34;5031749;28;20205;-79
2021/12/13 06:49:16;;;;;;;8.45;7.60;;;;;;;1.12;100.00;95026.41;5031957;28;20230;-78
2021/12/13 06:51:48;;;;;;;8.13;7.20;;;;;;;1.13;100.00;95025.50;5094139;28;20204;-78
2021/12/13 06:54:21;;;;;;;10.30;8.30;;;;;;;1.07;100.00;95025.78;5094660;28;20443;-78
2021/12/13 06:56:55;;;;;;;8.07;7.13;;;;;;;1.04;100.00;95028.50;5094351;28;20450;-79
2021/12/13 06:59:24;;;;;;;7.13;5.93;;;;;;;1.05;100.00;95032.78;5094870;28;20185;-78
2021/12/13 07:02:09;;;;;;;7.00;6.40;;;;;;;1.05;100.00;95040.53;5094317;28;20190;-78
2021/12/13 07:04:56;;;;;;;11.90;6.20;;;;;;;1.03;100.00;95032.00;5094191;28;20190;-78
2021/12/13 07:07:27;;;;;;;9.50;7.10;;;;;;;1.02;100.00;95043.25;5094003;28;20188;-78
2021/12/13 07:09:57;;;;;;;10.77;8.52;;;;;;;1.04;100.00;95039.69;5094390;28;20218;-78
2021/12/13 07:12:27;;;;;;;8.55;6.82;;;;;;;1.05;100.00;95046.53;5094524;28;20185;-77
2021/12/13 07:14:56;;;;;;;8.93;7.85;;;;;;;1.08;100.00;95048.97;5093918;28;20292;-77
2021/12/13 07:17:32;;;;;;;9.90;8.18;;;;;;;1.09;100.00;95042.91;5094199;28;20258;-78
2021/12/13 07:20:12;;;;;;;9.20;7.60;;;;;;;1.02;100.00;95048.41;5093747;28;20240;-77
2021/12/13 07:22:39;;;;;;;8.05;7.28;;;;;;;1.01;100.00;95050.16;5094505;28;20190;-77
2021/12/13 07:25:11;;;;;;;9.65;7.90;;;;;;;1.04;100.00;95044.84;5093770;28;20655;-78
2021/12/13 07:27:44;;;;;;;8.68;7.68;;;;;;;1.10;100.00;95043.72;5093969;28;20202;-78
2021/12/13 07:30:17;;;;;;;10.95;8.90;;;;;;;1.20;100.00;95047.59;5042673;28;20583;-78
2021/12/13 07:32:50;;;;;;;9.70;8.00;;;;;;;1.12;100.00;95044.50;5094203;28;20209;-78
2021/12/13 07:35:20;;;;;;;9.77;8.82;;;;;;;1.24;100.00;95056.88;5094274;28;20259;-76
2021/12/13 07:37:50;;;;;;;9.13;6.57;;;;;;;1.26;100.00;95055.06;5093543;28;20198;-77
2021/12/13 07:40:29;;;;;;;10.67;7.57;;;;;;;1.22;100.00;95059.53;5093726;28;20202;-76
2021/12/13 07:43:04;;;;;;;10.35;6.88;;;;;;;1.14;100.00;95068.53;5093179;28;20428;-78
2021/12/13 07:45:40;;;;;;;9.40;8.50;;;;;;;1.15;100.00;95068.44;5093238;28;20194;-76
2021/12/13 07:48:11;;;;;;;7.65;6.95;;;;;;;1.16;100.00;95069.31;5093596;28;20205;-77
2021/12/13 07:50:40;;;;;;;6.50;5.88;;;;;;;1.18;100.00;95073.50;5093060;28;20572;-76
2021/12/13 07:53:11;;;;;;;7.93;6.80;;;;;;;1.17;100.00;95071.84;5093367;28;20190;-77
2021/12/13 07:55:46;;;;;;;7.65;6.95;;;;;;;1.22;100.00;95074.19;5093586;28;20190;-76
2021/12/13 08:05:08;;;;;;;8.00;6.75;;;;;;;1.35;100.00;95077.06;5103960;28;20197;-76
2021/12/13 08:07:45;;;;;;;9.52;7.22;;;;;;;1.31;100.00;95073.78;5099954;28;20197;-76
2021/12/13 08:10:19;;;;;;;14.20;9.70;;;;;;;1.37;100.00;95073.47;5096629;28;20239;-77
2021/12/13 08:12:50;;;;;;;10.85;8.10;;;;;;;1.40;100.00;95083.69;5097002;28;20453;-76
2021/12/13 08:15:21;;;;;;;12.73;8.10;;;;;;;1.49;100.00;95088.44;5095805;28;20228;-77
2021/12/13 08:17:51;;;;;;;15.55;10.25;;;;;;;1.55;100.00;95082.16;5095616;28;20288;-76
2021/12/13 08:20:23;;;;;;;13.68;8.63;;;;;;;1.48;100.00;95081.59;5095464;28;20202;-77
2021/12/13 08:22:51;;;;;;;9.68;8.50;;;;;;;1.43;100.00;95087.88;5060348;28;20201;-76
2021/12/13 08:25:22;;;;;;;16.00;12.45;;;;;;;1.45;100.00;95086.09;5095914;28;20250;-77
2021/12/13 08:27:53;;;;;;;16.33;10.38;;;;;;;1.44;100.00;95084.38;5096229;28;20203;-76
2021/12/13 08:30:23;;;;;;;11.57;8.35;;;;;;;1.44;100.00;95080.03;5096258;28;20205;-76
2021/12/13 08:33:00;;;;;;;16.70;11.95;;;;;;;1.49;100.00;95083.28;5096099;28;20656;-76
2021/12/13 08:35:47;;;;;;;9.07;8.18;;;;;;;1.47;100.00;95084.25;5096477;28;20189;-76
2021/12/13 08:38:26;;;;;;;10.98;8.25;;;;;;;1.43;100.00;95083.53;5096423;28;20204;-76
2021/12/13 08:40:53;;;;;;;13.45;9.30;;;;;;;1.47;100.00;95092.00;5096281;28;20682;-76
2021/12/13 08:43:34;;;;;;;10.82;8.52;;;;;;;1.44;100.00;95079.19;5040293;28;20224;-78
2021/12/13 08:46:02;;;;;;;9.40;8.18;;;;;;;1.41;100.00;95076.75;5075821;28;20189;-77
2021/12/13 08:48:29;;;;;;;16.83;9.35;;;;;;;1.47;100.00;95084.25;5024916;28;20202;-77
2021/12/13 08:51:02;;;;;;;13.63;8.55;;;;;;;1.48;100.00;95079.00;5075835;28;20245;-79
2021/12/13 08:53:34;;;;;;;12.13;10.40;;;;;;;1.50;100.00;95089.28;5075516;28;20212;-79
2021/12/13 08:56:06;;;;;;;16.90;9.60;;;;;;;1.57;100.00;95084.66;5075864;28;20531;-79
2021/12/13 08:58:34;;;;;;;7.83;7.03;;;;;;;1.58;100.00;95084.59;5075989;28;20441;-78
2021/12/13 09:01:04;;;;;;;11.48;9.65;;;;;;;1.56;100.00;95089.00;5075551;28;20440;-78
2021/12/13 09:03:36;;;;;;;10.07;8.43;;;;;;;1.55;100.00;95093.31;5057623;28;20201;-78
2021/12/13 09:06:12;;;;;;;16.60;10.02;;;;;;;1.53;99.95;95094.31;5075804;28;20425;-79
2021/12/13 09:08:43;;;;;;;10.50;8.73;;;;;;;1.53;100.00;95091.72;5096369;28;20190;-77
2021/12/13 09:11:21;;;;;;;10.25;8.40;;;;;;;1.53;100.00;95084.81;5095403;28;20244;-76
2021/12/13 09:13:51;;;;;;;12.90;8.65;;;;;;;1.61;100.00;95078.44;5096053;28;20205;-77
2021/12/13 09:16:22;;;;;;;8.85;8.05;;;;;;;1.69;100.00;95086.66;5095490;28;20193;-76
2021/12/13 09:19:06;;;;;;;12.85;8.70;;;;;;;1.69;99.83;95084.91;5095633;28;20201;-77
2021/12/13 09:21:46;;;;;;;11.25;8.35;;;;;;;1.74;100.00;95075.22;5095665;28;20201;-76
2021/12/13 09:24:24;;;;;;;10.10;8.63;;;;;;;1.71;98.96;95077.91;5095771;28;20208;-76
2021/12/13 09:26:51;;;;;;;10.57;8.93;;;;;;;1.65;99.36;95077.38;5095864;28;20439;-77
2021/12/13 09:29:18;;;;;;;12.35;9.45;;;;;;;1.67;99.74;95071.22;5095611;28;20526;-77
2021/12/13 09:31:46;;;;;;;9.90;7.97;;;;;;;1.65;99.60;95060.09;5095443;28;20629;-77
2021/12/13 09:34:17;;;;;;;11.55;9.73;;;;;;;1.71;100.00;95070.16;5095683;28;20448;-77
2021/12/13 09:36:47;;;;;;;13.07;9.60;;;;;;;1.71;99.46;95072.75;5095439;28;20181;-76
2021/12/13 09:39:17;;;;;;;11.10;8.60;;;;;;;1.71;99.40;95062.41;5095278;28;20950;-77
2021/12/13 09:41:47;;;;;;;9.18;7.30;;;;;;;1.61;99.33;95066.34;5095369;28;20481;-77
2021/12/13 09:44:20;;;;;;;8.77;7.80;;;;;;;1.64;99.50;95055.00;5095256;28;20201;-77
2021/12/13 09:46:52;;;;;;;11.25;8.13;;;;;;;1.61;99.55;95065.50;5095683;28;20227;-77
2021/12/13 09:49:26;;;;;;;8.45;7.30;;;;;;;1.75;100.00;95071.72;5095615;28;20228;-77
2021/12/13 09:51:57;;;;;;;12.70;8.73;;;;;;;1.78;99.45;95068.97;5094418;28;20182;-77
2021/12/13 09:54:28;;;;;;;10.65;6.38;;;;;;;1.84;98.76;95067.84;5080099;28;20452;-77
2021/12/13 09:56:55;;;;;;;9.65;8.07;;;;;;;1.76;98.79;95070.78;5074290;28;20198;-77
2021/12/13 09:59:28;;;;;;;8.73;7.83;;;;;;;1.75;99.90;95050.19;5074352;28;20207;-77
2021/12/13 10:01:58;;;;;;;9.57;8.57;;;;;;;1.76;99.76;95055.28;5024588;28;20799;-77
2021/12/13 10:04:32;;;;;;;10.13;8.70;;;;;;;1.79;99.75;95069.81;5074883;28;20437;-78
2021/12/13 10:07:05;;;;;;;10.60;9.30;;;;;;;1.83;100.00;95061.81;5037629;28;20471;-78
2021/12/13 10:09:35;;;;;;;11.20;9.73;;;;;;;1.81;99.26;95068.00;5094927;28;20436;-77
2021/12/13 10:12:08;;;;;;;9.77;8.77;;;;;;;1.79;100.00;95062.88;5094528;28;20250;-79
2021/12/13 10:14:39;;;;;;;9.37;8.43;;;;;;;1.81;100.00;95063.66;5094029;28;20568;-76
2021/12/13 10:17:11;;;;;;;9.47;8.00;;;;;;;1.88;100.00;95053.00;5094153;28;20518;-76
2021/12/13 10:19:42;;;;;;;9.47;8.53;;;;;;;1.95;100.00;95055.22;5094223;28;20532;-76
2021/12/13 10:22:13;;;;;;;11.80;8.70;;;;;;;1.95;100.00;95059.53;5092186;28;20446;-77
2021/12/13 10:24:44;;;;;;;16.47;9.10;;;;;;;1.95;99.79;95049.19;5081826;28;20452;-77
2021/12/13 10:27:15;;;;;;;15.83;9.57;;;;;;;2.04;99.95;95049.59;5073016;28;20531;-76
2021/12/13 10:29:47;;;;;;;12.40;8.83;;;;;;;2.03;98.91;95049.69;5073839;28;20468;-77
2021/12/13 10:32:19;;;;;;;11.23;10.10;;;;;;;2.00;99.24;95040.28;5087042;28;20438;-77
2021/12/13 10:34:50;;;;;;;17.00;11.77;;;;;;;2.02;99.79;95040.22;5093696;28;20439;-76
2021/12/13 10:37:27;;;;;;;17.07;9.80;;;;;;;2.02;99.86;95051.41;5093810;28;20443;-77
2021/12/13 10:39:58;;;;;;;10.97;8.90;;;;;;;2.19;99.67;95053.16;5094416;28;20453;-76
2021/12/13 10:42:32;;;;;;;22.50;11.80;;;;;;;2.23;99.50;95041.75;5093746;28;20820;-76
2021/12/13 10:44:59;;;;;;;14.00;10.73;;;;;;;2.30;98.67;95042.28;5094098;28;20473;-77
2021/12/13 10:47:30;;;;;;;10.53;7.40;;;;;;;2.26;97.95;95041.59;5093689;28;20948;-77
2021/12/13 10:50:01;;;;;;;11.07;8.50;;;;;;;2.20;97.53;95038.47;5094327;28;20835;-76
2021/12/13 10:52:35;;;;;;;8.67;7.60;;;;;;;2.17;98.07;95042.06;5094298;28;20516;-79
2021/12/13 10:55:09;;;;;;;9.60;8.13;;;;;;;2.14;98.28;95040.47;5079354;28;20795;-77
2021/12/13 10:57:43;;;;;;;9.53;8.53;;;;;;;2.14;97.34;95035.28;5073168;28;20451;-77
2021/12/13 11:00:12;;;;;;;11.93;9.43;;;;;;;2.13;98.05;95036.19;5072277;28;20468;-79
2021/12/13 11:02:40;;;;;;;11.57;8.97;;;;;;;2.11;97.38;95039.78;5072515;28;20217;-77
2021/12/13 11:05:10;;;;;;;18.13;11.43;;;;;;;2.16;97.86;95036.03;5072476;28;20448;-77
2021/12/13 11:07:41;;;;;;;15.30;10.13;;;;;;;2.25;98.28;95036.50;5072573;28;20444;-77
2021/12/13 11:10:10;;;;;;;13.63;10.13;;;;;;;2.32;97.75;95043.06;5072326;28;20564;-77
2021/12/13 11:12:40;;;;;;;11.23;9.10;;;;;;;2.32;97.38;95032.72;5022185;28;20462;-76
2021/12/13 11:15:10;;;;;;;10.53;8.80;;;;;;;2.34;96.99;95031.72;5072378;28;20482;-77
2021/12/13 11:17:39;;;;;;;10.90;8.63;;;;;;;2.38;96.58;95040.16;5072844;28;20449;-77
2021/12/13 11:20:11;;;;;;;11.07;9.90;;;;;;;2.38;96.76;95037.56;5072432;28;20440;-78
2021/12/13 11:22:39;;;;;;;9.10;8.20;;;;;;;2.38;96.48;95028.03;5072730;28;20520;-77
2021/12/13 11:25:11;;;;;;;11.27;7.63;;;;;;;2.35;96.90;95035.97;5072688;28;20459;-77
2021/12/13 11:27:38;;;;;;;11.03;8.80;;;;;;;2.39;96.76;95039.25;5072574;28;20951;-76
2021/12/13 11:30:10;;;;;;;8.57;7.73;;;;;;;2.30;96.08;95035.34;5072252;28;20503;-77
2021/12/13 11:33:10;;;;;;;9.83;8.83;;;;;;;2.32;96.78;95033.53;5071919;28;20440;-77
2021/12/13 11:36:20;;;;;;;16.73;9.17;;;;;;;2.33;96.58;95034.38;4990746;28;20459;-77
2021/12/13 11:39:19;;;;;;;12.23;9.20;;;;;;;2.25;97.36;95033.91;4991755;28;20462;-77
2021/12/13 11:42:05;;;;;;;10.53;9.03;;;;;;;2.22;97.42;95029.72;4994076;28;20440;-76
2021/12/13 11:44:46;;;;;;;15.70;10.00;;;;;;;2.25;98.06;95026.97;4994315;28;20502;-76
2021/12/13 11:47:37;;;;;;;8.90;7.87;;;;;;;2.27;97.65;95019.97;4994282;28;21037;-76
2021/12/13 11:50:40;;;;;;;10.50;8.97;;;;;;;2.31;97.90;95034.44;4994608;28;20483;-78
2021/12/13 11:53:22;;;;;;;10.00;8.47;;;;;;;2.40;97.62;95033.16;4993553;28;21018;-76
2021/12/13 11:56:24;;;;;;;12.87;10.00;;;;;;;2.47;97.03;95037.09;4994340;28;20448;-77
2021/12/13 11:59:27;;;;;;;12.60;9.13;;;;;;;2.52;97.66;95037.69;4897920;29;20459;-77
2021/12/13 12:02:24;;;;;;;9.00;8.13;;;;;;;2.46;96.71;95040.59;4860793;29;20445;-77
2021/12/13 12:05:23;;;;;;;14.23;9.40;;;;;;;2.42;97.19;95031.31;4787990;29;20458;-77
2021/12/13 12:08:19;;;;;;;11.13;8.70;;;;;;;2.40;97.31;95036.56;4801630;29;20460;-77
2021/12/13 12:11:12;;;;;;;11.65;8.73;;;;;;;2.52;97.84;95039.44;4806139;29;20572;-76
2021/12/13 12:13:51;;;;;;;12.80;9.83;;;;;;;2.48;97.27;95037.00;4836585;29;20686;-77
2021/12/13 12:16:21;;;;;;;14.10;8.90;;;;;;;2.52;97.16;95050.63;4842431;29;20539;-77
2021/12/13 12:18:51;;;;;;;15.73;10.70;;;;;;;2.43;96.55;95035.56;4842282;29;20817;-77
2021/12/13 12:21:38;;;;;;;8.97;8.10;;;;;;;2.38;96.86;95033.22;4842132;29;20530;-77